Time;durP1;ratioP1;P1;durP2;ratioP2;P2;SDS_P1;SDS_P2;PMS_P1;PMS_P2;Temp;Humidity;BMP_temperature;BMP_pressure;BME280_temperature;BME280_humidity;BME280_pressure;Samples;Min_cycle;Max_cycle;Signal;HPM_P1;HPM_P2
2022/09/25 00:02:23;;;;;;;1.98;0.20;;;9.40;99.90;;;;;;4758484;30;20089;-92
2022/09/25 00:04:48;;;;;;;1.38;0.30;;;9.20;99.90;;;;;;4789077;30;20087;-92
2022/09/25 00:07:14;;;;;;;0.80;0.22;;;9.20;99.90;;;;;;4771498;30;20059;-90
2022/09/25 00:09:40;;;;;;;0.47;0.10;;;9.80;99.90;;;;;;4755052;30;20101;-92
2022/09/25 00:12:05;;;;;;;1.73;0.22;;;9.10;99.90;;;;;;4755092;30;20102;-94
2022/09/25 00:14:31;;;;;;;1.45;0.17;;;9.10;99.90;;;;;;4754916;30;20058;-89
2022/09/25 00:16:57;;;;;;;0.68;0.20;;;9.20;99.90;;;;;;4756283;30;20051;-90
2022/09/25 00:22:07;;;;;;;1.58;0.20;;;9.30;99.90;;;;;;4770737;30;20063;-91
2022/09/25 00:24:33;;;;;;;0.45;0.30;;;9.10;99.90;;;;;;4770229;30;20059;-92
2022/09/25 00:26:59;;;;;;;1.20;0.30;;;9.40;99.90;;;;;;4770622;30;20051;-92
2022/09/25 00:29:25;;;;;;;0.22;0.20;;;9.10;99.90;;;;;;4755515;30;20468;-92
2022/09/25 00:31:51;;;;;;;0.50;0.20;;;9.10;99.90;;;;;;4754563;30;20059;-92
2022/09/25 00:34:16;;;;;;;0.98;0.15;;;9.30;99.90;;;;;;4755685;30;20395;-90
2022/09/25 00:36:42;;;;;;;1.98;0.20;;;10.00;99.90;;;;;;4770916;30;20133;-92
2022/09/25 00:39:08;;;;;;;0.80;0.20;;;9.00;99.90;;;;;;4759756;30;20493;-91
2022/09/25 00:41:34;;;;;;;0.10;0.10;;;9.50;99.90;;;;;;4788397;30;20051;-91
2022/09/25 00:44:02;;;;;;;1.15;0.20;;;9.30;99.90;;;;;;4773539;29;20082;-91
2022/09/25 00:46:39;;;;;;;0.63;0.10;;;9.00;99.90;;;;;;4791371;29;20062;-92
2022/09/25 00:49:24;;;;;;;0.40;0.20;;;9.00;99.90;;;;;;4760265;30;20064;-91
2022/09/25 00:52:00;;;;;;;1.23;0.50;;;9.00;99.90;;;;;;4771353;30;20048;-91
2022/09/25 00:54:31;;;;;;;0.13;0.10;;;9.10;99.90;;;;;;4755317;30;20410;-93
2022/09/25 00:57:00;;;;;;;0.52;0.20;;;9.20;99.90;;;;;;4754827;30;20409;-92
2022/09/25 00:59:31;;;;;;;0.25;0.20;;;9.00;99.90;;;;;;4763108;30;20605;-92
2022/09/25 01:01:58;;;;;;;0.30;0.10;;;9.00;99.90;;;;;;4771283;30;20047;-94
2022/09/25 01:04:27;;;;;;;0.20;0.10;;;9.00;99.90;;;;;;4754627;30;20052;-91
2022/09/25 01:06:54;;;;;;;1.17;0.22;;;9.60;99.90;;;;;;4755149;30;20055;-92
2022/09/25 01:09:21;;;;;;;1.75;0.20;;;9.20;99.90;;;;;;4757206;30;20117;-92
2022/09/25 01:11:47;;;;;;;0.85;0.10;;;8.90;99.90;;;;;;4775855;30;20547;-93
2022/09/25 01:14:16;;;;;;;0.13;0.13;;;9.20;99.90;;;;;;4758506;30;20147;-92
2022/09/25 01:16:58;;;;;;;0.60;0.20;;;8.90;99.90;;;;;;4758029;30;20094;-91
2022/09/25 01:20:01;;;;;;;0.40;0.20;;;9.40;99.90;;;;;;4774465;30;20409;-91
2022/09/25 01:22:49;;;;;;;0.40;0.10;;;8.90;99.90;;;;;;4763663;30;20067;-91
2022/09/25 01:25:55;;;;;;;0.63;0.20;;;8.90;99.90;;;;;;4757112;30;20490;-91
2022/09/25 01:28:39;;;;;;;0.47;0.20;;;8.90;99.90;;;;;;4757032;30;20055;-90
2022/09/25 01:31:23;;;;;;;1.00;0.28;;;8.90;99.90;;;;;;4757320;30;20071;-92
2022/09/25 01:34:01;;;;;;;0.50;0.20;;;8.90;99.90;;;;;;4757588;30;20099;-92
2022/09/25 01:36:36;;;;;;;1.65;0.30;;;8.90;99.90;;;;;;4774106;30;20418;-92
2022/09/25 01:39:13;;;;;;;0.60;0.20;;;8.90;99.90;;;;;;4772094;30;20059;-91
2022/09/25 01:41:47;;;;;;;0.88;0.57;;;8.90;99.90;;;;;;4759881;30;20169;-91
2022/09/25 01:44:43;;;;;;;0.68;0.22;;;9.40;99.90;;;;;;4774942;30;20055;-92
2022/09/25 01:47:16;;;;;;;0.70;0.20;;;8.80;99.90;;;;;;4788484;29;20064;-90
2022/09/25 01:49:47;;;;;;;0.60;0.10;;;8.90;99.90;;;;;;4772647;30;20120;-90
2022/09/25 01:52:18;;;;;;;4.10;0.38;;;9.60;99.90;;;;;;4772638;30;20064;-92
2022/09/25 01:54:57;;;;;;;0.25;0.20;;;8.80;99.90;;;;;;4772779;30;20056;-91
2022/09/25 01:57:34;;;;;;;1.00;0.30;;;8.80;99.90;;;;;;4772709;30;20059;-92
2022/09/25 02:00:09;;;;;;;0.75;0.28;;;9.20;99.90;;;;;;4789463;30;20051;-92
2022/09/25 02:02:48;;;;;;;0.82;0.30;;;8.70;99.90;;;;;;4790711;29;20044;-91
2022/09/25 02:05:42;;;;;;;0.20;0.20;;;8.70;99.90;;;;;;4790905;30;20624;-90
2022/09/25 02:08:32;;;;;;;0.20;0.20;;;8.50;99.90;;;;;;4708340;30;20100;-91
2022/09/25 02:11:03;;;;;;;0.38;0.30;;;8.60;99.90;;;;;;4717616;30;20136;-88
2022/09/25 02:13:40;;;;;;;1.48;0.20;;;8.60;99.90;;;;;;4718272;30;20053;-93
2022/09/25 02:16:11;;;;;;;0.73;0.20;;;8.60;99.90;;;;;;4718468;30;20061;-93
2022/09/25 02:22:03;;;;;;;0.20;0.10;;;9.30;99.90;;;;;;4718221;30;20478;-94
2022/09/25 02:24:52;;;;;;;1.08;0.28;;;8.50;99.90;;;;;;4717749;30;20578;-92
2022/09/25 02:27:23;;;;;;;0.73;0.20;;;8.50;99.90;;;;;;4703522;30;20063;-94
2022/09/25 02:29:49;;;;;;;3.20;0.20;;;8.50;99.90;;;;;;4728745;30;20147;-94
2022/09/25 02:36:01;;;;;;;0.38;0.20;;;8.30;99.90;;;;;;4735671;30;20102;-93
2022/09/25 02:38:28;;;;;;;0.88;0.30;;;8.30;99.90;;;;;;4720767;30;20185;-92
2022/09/25 02:40:59;;;;;;;0.50;0.30;;;8.30;99.90;;;;;;4720375;30;20053;-93
2022/09/25 02:43:44;;;;;;;0.40;0.30;;;8.30;99.90;;;;;;4720365;30;20072;-93
2022/09/25 02:46:22;;;;;;;0.35;0.22;;;8.30;99.90;;;;;;4770526;30;20067;-93
2022/09/25 02:49:05;;;;;;;0.68;0.30;;;8.40;99.90;;;;;;4774172;30;20150;-92
2022/09/25 02:51:56;;;;;;;0.65;0.30;;;8.40;99.90;;;;;;4759555;30;20059;-92
2022/09/25 02:54:58;;;;;;;1.20;0.40;;;8.40;99.90;;;;;;4790100;30;20059;-92
2022/09/25 02:57:57;;;;;;;1.75;0.45;;;8.40;99.90;;;;;;4773967;30;20066;-93
2022/09/25 03:00:23;;;;;;;2.67;1.75;;;8.40;99.90;;;;;;4791720;30;20052;-94
2022/09/25 03:06:31;;;;;;;0.47;0.17;;;8.90;99.90;;;;;;4782757;30;20034;-91
2022/09/25 03:09:01;;;;;;;0.38;0.20;;;8.40;99.90;;;;;;4778376;30;20046;-89
2022/09/25 03:11:28;;;;;;;0.65;0.20;;;9.00;99.90;;;;;;4792778;30;20051;-91
2022/09/25 03:13:59;;;;;;;0.50;0.20;;;8.40;99.90;;;;;;4784691;30;20042;-93
2022/09/25 03:16:45;;;;;;;1.10;0.20;;;8.70;99.90;;;;;;4793982;30;20043;-93
2022/09/25 03:19:17;;;;;;;0.20;0.20;;;8.40;99.90;;;;;;4780833;29;20055;-92
2022/09/25 03:21:46;;;;;;;0.50;0.20;;;8.40;99.90;;;;;;4812059;29;20098;-87
2022/09/25 03:24:12;;;;;;;0.47;0.30;;;8.40;99.90;;;;;;4792308;29;20066;-89
2022/09/25 03:26:40;;;;;;;0.40;0.40;;;8.40;99.90;;;;;;4794900;29;20061;-90
2022/09/25 03:29:05;;;;;;;0.25;0.20;;;8.50;99.90;;;;;;4796405;29;20075;-88
2022/09/25 03:31:32;;;;;;;0.43;0.20;;;9.30;99.90;;;;;;4795683;29;20054;-92
2022/09/25 03:33:59;;;;;;;1.75;0.20;;;8.90;99.90;;;;;;4778840;30;20055;-91
2022/09/25 03:36:28;;;;;;;0.28;0.20;;;8.60;99.90;;;;;;4762172;30;20055;-91
2022/09/25 03:38:58;;;;;;;0.47;0.17;;;8.60;99.90;;;;;;4775385;30;20425;-92
2022/09/25 03:41:26;;;;;;;0.17;0.17;;;8.60;99.90;;;;;;4766537;30;20142;-92
2022/09/25 03:43:52;;;;;;;0.10;0.10;;;8.90;99.90;;;;;;4760203;30;20062;-91
2022/09/25 03:46:23;;;;;;;1.38;0.25;;;8.70;99.90;;;;;;4790189;30;20506;-92
2022/09/25 03:48:49;;;;;;;0.45;0.13;;;8.20;99.90;;;;;;4759311;30;20052;-91
2022/09/25 03:51:18;;;;;;;0.52;0.20;;;8.60;99.90;;;;;;4759640;30;20071;-93
2022/09/25 03:53:45;;;;;;;0.30;0.20;;;8.30;99.90;;;;;;4777443;30;20056;-93
2022/09/25 03:56:20;;;;;;;0.15;0.15;;;9.00;99.90;;;;;;4789368;30;20055;-93
2022/09/25 03:58:47;;;;;;;1.23;0.30;;;9.10;99.90;;;;;;4795222;30;20069;-92
2022/09/25 04:01:14;;;;;;;1.05;0.20;;;8.50;99.90;;;;;;4791044;30;20063;-92
2022/09/25 04:03:46;;;;;;;0.20;0.20;;;9.10;99.90;;;;;;4809387;29;20051;-93
2022/09/25 04:06:17;;;;;;;0.95;0.20;;;9.20;99.90;;;;;;4801267;30;20058;-89
2022/09/25 04:08:44;;;;;;;2.00;0.20;;;8.30;99.90;;;;;;4790665;30;20111;-92
2022/09/25 04:11:10;;;;;;;2.15;0.15;;;8.30;99.90;;;;;;4767090;30;20475;-90
2022/09/25 04:13:36;;;;;;;1.50;0.20;;;8.20;99.90;;;;;;4780530;30;20055;-94
2022/09/25 04:16:04;;;;;;;0.20;0.20;;;8.90;99.90;;;;;;4761633;30;20399;-92
2022/09/25 04:18:30;;;;;;;1.85;0.20;;;8.20;99.90;;;;;;4786374;29;20425;-92
2022/09/25 04:21:00;;;;;;;1.63;0.30;;;8.20;99.90;;;;;;4788702;30;20055;-91
2022/09/25 04:23:26;;;;;;;0.50;0.20;;;8.10;99.90;;;;;;4773079;30;20085;-93
2022/09/25 04:25:52;;;;;;;0.95;0.20;;;9.10;99.90;;;;;;4787152;29;20497;-90
2022/09/25 04:28:18;;;;;;;3.10;0.20;;;8.10;99.90;;;;;;4772296;30;20090;-89
2022/09/25 04:30:44;;;;;;;1.05;0.30;;;8.70;99.90;;;;;;4785540;30;20124;-89
2022/09/25 04:35:55;;;;;;;0.52;0.20;;;8.00;99.90;;;;;;4755694;30;20124;-88
2022/09/25 04:38:21;;;;;;;0.28;0.20;;;7.40;99.90;;;;;;4754286;30;20138;-89
2022/09/25 04:40:47;;;;;;;0.57;0.30;;;7.60;99.90;;;;;;4769332;30;20094;-92
2022/09/25 04:43:13;;;;;;;0.25;0.20;;;7.80;99.90;;;;;;4771643;30;20119;-88
2022/09/25 04:45:39;;;;;;;0.20;0.20;;;7.90;99.90;;;;;;4791151;29;20062;-93
2022/09/25 04:48:05;;;;;;;0.63;0.20;;;8.60;99.90;;;;;;4772659;30;20051;-92
2022/09/25 04:50:31;;;;;;;0.60;0.20;;;8.50;99.90;;;;;;4757903;30;20072;-91
2022/09/25 04:52:58;;;;;;;0.50;0.30;;;8.00;99.90;;;;;;4758098;30;20058;-93
2022/09/25 04:55:26;;;;;;;0.40;0.22;;;7.70;99.90;;;;;;4769782;30;20059;-93
2022/09/25 04:57:59;;;;;;;0.73;0.20;;;8.30;99.90;;;;;;4773957;30;20484;-93
2022/09/25 05:00:28;;;;;;;0.95;0.10;;;8.50;99.90;;;;;;4790090;30;20087;-92
2022/09/25 05:02:54;;;;;;;0.80;0.20;;;7.70;99.90;;;;;;4774430;30;20146;-91
2022/09/25 05:05:28;;;;;;;0.40;0.25;;;7.70;99.90;;;;;;4790941;30;20134;-91
2022/09/25 05:07:56;;;;;;;0.38;0.20;;;7.00;99.90;;;;;;4760334;30;20067;-90
2022/09/25 05:10:23;;;;;;;0.20;0.20;;;7.70;99.90;;;;;;4768114;30;20132;-94
2022/09/25 05:12:55;;;;;;;0.50;0.25;;;7.50;99.90;;;;;;4768104;30;20125;-92
2022/09/25 05:15:20;;;;;;;0.80;0.30;;;8.70;99.90;;;;;;4758279;30;20098;-92
2022/09/25 05:17:46;;;;;;;0.38;0.20;;;8.10;99.90;;;;;;4787298;29;20055;-92
2022/09/25 05:20:12;;;;;;;0.10;0.10;;;7.60;99.90;;;;;;4773186;30;20091;-92
2022/09/25 05:22:38;;;;;;;1.75;0.50;;;7.60;99.90;;;;;;4782402;30;20047;-86
2022/09/25 05:25:04;;;;;;;1.88;0.20;;;7.60;99.90;;;;;;4752006;30;20052;-89
2022/09/25 05:27:33;;;;;;;1.17;0.22;;;7.60;99.90;;;;;;4770504;30;20472;-87
2022/09/25 05:30:01;;;;;;;0.38;0.20;;;8.30;99.90;;;;;;4761291;30;20074;-88
2022/09/25 05:36:24;;;;;;;0.30;0.20;;;7.60;99.90;;;;;;4786819;30;20461;-85
2022/09/25 05:38:52;;;;;;;0.13;0.13;;;7.60;99.90;;;;;;4772489;30;20087;-85
2022/09/25 05:41:18;;;;;;;0.20;0.15;;;7.70;99.90;;;;;;4748132;30;20205;-85
2022/09/25 05:43:49;;;;;;;0.20;0.20;;;8.50;99.90;;;;;;4756662;30;20473;-86
2022/09/25 05:46:18;;;;;;;0.52;0.25;;;7.20;99.90;;;;;;4766391;30;20051;-88
2022/09/25 05:48:47;;;;;;;0.20;0.20;;;7.00;99.90;;;;;;4774293;30;20066;-86
2022/09/25 05:51:13;;;;;;;0.28;0.20;;;8.10;99.90;;;;;;4773389;30;20062;-86
2022/09/25 05:53:38;;;;;;;0.28;0.20;;;7.60;99.90;;;;;;4764517;29;20052;-87
2022/09/25 05:56:05;;;;;;;0.52;0.30;;;7.10;99.90;;;;;;4772431;30;20123;-85
2022/09/25 05:58:32;;;;;;;0.20;0.20;;;7.60;99.90;;;;;;4773120;30;20058;-85
2022/09/25 06:01:03;;;;;;;1.55;0.20;;;8.20;99.90;;;;;;4772354;30;20131;-85
2022/09/25 06:03:29;;;;;;;0.40;0.30;;;7.70;99.90;;;;;;4755901;30;20056;-85
2022/09/25 06:06:08;;;;;;;0.20;0.20;;;7.70;99.90;;;;;;4784547;30;20105;-86
2022/09/25 06:08:37;;;;;;;0.40;0.25;;;7.90;99.90;;;;;;4773351;30;20417;-89
2022/09/25 06:11:12;;;;;;;0.60;0.20;;;8.50;99.90;;;;;;4787636;30;20513;-89
2022/09/25 06:13:38;;;;;;;0.17;0.17;;;7.80;99.90;;;;;;4773265;30;20143;-88
2022/09/25 06:16:12;;;;;;;1.20;0.20;;;8.80;99.90;;;;;;4774056;30;20055;-88
2022/09/25 06:18:37;;;;;;;0.30;0.30;;;7.90;99.90;;;;;;4769209;30;20134;-85
2022/09/25 06:21:04;;;;;;;0.13;0.13;;;8.20;99.90;;;;;;4771839;30;20076;-89
2022/09/25 06:23:30;;;;;;;0.65;0.20;;;7.90;99.90;;;;;;4786142;30;20129;-86
2022/09/25 06:26:04;;;;;;;0.20;0.20;;;8.10;99.90;;;;;;4782528;30;20054;-84
2022/09/25 06:28:30;;;;;;;1.85;0.20;;;8.00;99.90;;;;;;4787238;30;20082;-84
2022/09/25 06:30:59;;;;;;;0.20;0.17;;;8.10;99.90;;;;;;4758865;30;20062;-88
2022/09/25 06:33:25;;;;;;;0.20;0.20;;;8.80;99.90;;;;;;4772426;30;20055;-86
2022/09/25 06:35:51;;;;;;;0.13;0.13;;;8.80;99.90;;;;;;4771202;30;20047;-88
2022/09/25 06:38:17;;;;;;;0.68;0.40;;;8.80;99.90;;;;;;4755250;30;20051;-84
2022/09/25 06:40:43;;;;;;;0.75;0.20;;;8.40;99.90;;;;;;4755422;30;20115;-83
2022/09/25 06:43:11;;;;;;;0.43;0.20;;;9.10;99.90;;;;;;4768058;30;20055;-83
2022/09/25 06:45:40;;;;;;;0.10;0.10;;;8.90;99.90;;;;;;4747552;30;20098;-83
2022/09/25 06:48:14;;;;;;;0.35;0.30;;;8.70;99.90;;;;;;4755001;30;20523;-83
2022/09/25 06:50:43;;;;;;;0.45;0.20;;;8.80;99.90;;;;;;4755009;30;20079;-84
2022/09/25 06:53:10;;;;;;;1.77;0.30;;;9.00;99.90;;;;;;4755153;30;20112;-86
2022/09/25 06:55:36;;;;;;;0.52;0.20;;;9.10;99.90;;;;;;4764049;30;20196;-84
2022/09/25 06:58:04;;;;;;;0.13;0.10;;;9.40;99.90;;;;;;4760501;30;20060;-84
2022/09/25 07:00:31;;;;;;;0.77;0.40;;;9.30;99.90;;;;;;4770052;30;20140;-84
2022/09/25 07:05:47;;;;;;;0.47;0.30;;;10.60;99.90;;;;;;4782877;29;20052;-85
2022/09/25 07:08:19;;;;;;;0.20;0.20;;;9.90;99.90;;;;;;4787879;30;20062;-86
2022/09/25 07:10:58;;;;;;;0.80;0.30;;;10.10;99.90;;;;;;4785858;30;20572;-84
2022/09/25 07:13:30;;;;;;;0.65;0.35;;;10.20;99.90;;;;;;4770694;30;20056;-85
2022/09/25 07:16:04;;;;;;;2.08;0.38;;;11.00;99.90;;;;;;4770979;30;20083;-84
2022/09/25 07:18:31;;;;;;;1.00;0.50;;;10.50;99.90;;;;;;4754238;30;20569;-84
2022/09/25 07:21:07;;;;;;;1.88;0.60;;;10.70;99.90;;;;;;4762026;30;20055;-84
2022/09/25 07:23:34;;;;;;;3.45;0.45;;;11.00;99.90;;;;;;4770214;30;20059;-83
2022/09/25 07:26:10;;;;;;;1.60;0.40;;;11.10;99.90;;;;;;4756998;30;20063;-84
2022/09/25 07:28:37;;;;;;;0.57;0.30;;;11.30;99.90;;;;;;4780097;30;20071;-84
2022/09/25 07:31:13;;;;;;;2.00;0.30;;;11.50;99.90;;;;;;4754627;30;20066;-84
2022/09/25 07:33:38;;;;;;;;;;;11.60;99.90;;;;;;4770640;30;20048;-85
2022/09/25 07:36:04;;;;;;;0.98;0.30;;;11.70;99.90;;;;;;4754382;30;19925;-87
2022/09/25 07:38:30;;;;;;;1.30;0.30;;;11.90;99.90;;;;;;4770389;30;20499;-85
2022/09/25 07:40:56;;;;;;;1.45;0.35;;;12.20;99.90;;;;;;4770368;30;20055;-84
2022/09/25 07:43:22;;;;;;;1.20;0.30;;;12.20;99.90;;;;;;4782520;30;20413;-86
2022/09/25 07:45:52;;;;;;;2.25;0.30;;;12.30;99.90;;;;;;4770965;30;20063;-87
2022/09/25 07:48:22;;;;;;;0.50;0.20;;;12.50;99.90;;;;;;4785760;29;20547;-86
2022/09/25 07:50:48;;;;;;;1.52;0.30;;;12.80;99.90;;;;;;4756272;30;20055;-85
2022/09/25 07:53:18;;;;;;;0.68;0.20;;;12.70;99.90;;;;;;4761093;30;20402;-86
2022/09/25 07:55:45;;;;;;;0.38;0.10;;;12.90;99.90;;;;;;4769482;30;20091;-86
2022/09/25 07:58:11;;;;;;;0.85;0.22;;;13.00;99.90;;;;;;4785941;30;20077;-85
2022/09/25 08:00:39;;;;;;;3.78;0.38;;;13.40;99.90;;;;;;4771469;30;20402;-85
2022/09/25 08:03:05;;;;;;;1.80;0.40;;;13.40;99.90;;;;;;4755845;30;20039;-87
2022/09/25 08:05:31;;;;;;;2.22;0.30;;;13.60;99.90;;;;;;4769713;30;20063;-88
2022/09/25 08:07:57;;;;;;;4.22;0.43;;;13.80;99.90;;;;;;4753980;30;20117;-87
2022/09/25 08:10:22;;;;;;;3.83;0.43;;;14.20;99.90;;;;;;4753707;30;20410;-85
2022/09/25 08:12:48;;;;;;;1.10;0.20;;;14.20;99.90;;;;;;4754195;30;20059;-88
2022/09/25 08:15:15;;;;;;;1.20;0.20;;;14.40;99.90;;;;;;4769901;30;20056;-87
2022/09/25 08:17:41;;;;;;;2.05;0.30;;;14.60;99.90;;;;;;4755432;30;20052;-87
2022/09/25 08:20:08;;;;;;;3.08;0.25;;;14.80;99.90;;;;;;4770864;30;20413;-86
2022/09/25 08:22:34;;;;;;;1.63;0.20;;;14.80;99.90;;;;;;4782195;30;20123;-85
2022/09/25 08:25:02;;;;;;;1.20;0.20;;;14.90;99.90;;;;;;4774367;30;20138;-84
2022/09/25 08:27:29;;;;;;;0.75;0.10;;;15.00;99.90;;;;;;4790274;30;20062;-85
2022/09/25 08:29:55;;;;;;;1.40;0.20;;;15.10;99.90;;;;;;4790607;30;20054;-85
2022/09/25 08:32:21;;;;;;;2.45;0.28;;;15.30;99.90;;;;;;4783966;30;20064;-86
2022/09/25 08:34:47;;;;;;;2.15;0.20;;;15.70;99.90;;;;;;4760396;30;20051;-85
2022/09/25 08:37:14;;;;;;;1.23;0.20;;;14.90;99.90;;;;;;4790513;30;20055;-85
2022/09/25 08:39:40;;;;;;;1.40;0.10;;;15.40;99.90;;;;;;4774242;30;20062;-87
2022/09/25 08:42:14;;;;;;;3.63;0.22;;;15.40;99.90;;;;;;4774198;30;20063;-84
2022/09/25 08:49:00;;;;;;;1.48;0.22;;;15.50;99.90;;;;;;4790029;29;20055;-85
2022/09/25 08:50:23;;;;;;;1.73;0.30;;;15.90;99.90;;;;;;4756725;30;20147;-87
2022/09/25 08:52:54;;;;;;;1.15;0.30;;;16.20;99.90;;;;;;4757080;30;20095;-86
2022/09/25 08:58:28;;;;;;;1.02;0.22;;;16.30;99.90;;;;;;4790005;30;20138;-85
2022/09/25 09:00:59;;;;;;;1.75;0.20;;;16.20;99.90;;;;;;4790160;30;20447;-89
2022/09/25 09:03:36;;;;;;;1.75;0.20;;;16.10;99.90;;;;;;4792111;24;20051;-87
2022/09/25 09:06:10;;;;;;;0.82;0.10;;;16.20;99.90;;;;;;4771584;30;20091;-86
2022/09/25 09:08:39;;;;;;;1.63;0.20;;;16.10;99.90;;;;;;4773748;30;20059;-86
2022/09/25 09:11:15;;;;;;;2.40;0.20;;;16.00;99.90;;;;;;4773901;30;20070;-87
2022/09/25 09:14:03;;;;;;;2.20;0.40;;;16.00;99.90;;;;;;4773598;30;20130;-86
2022/09/25 09:17:21;;;;;;;;;;;;;;;;;;;;;
2022/09/25 09:20:01;;;;;;;1.65;0.30;;;16.30;99.90;;;;;;4751872;30;20127;-84
2022/09/25 09:22:38;;;;;;;1.08;0.20;;;15.80;99.90;;;;;;4737302;30;20091;-84
2022/09/25 09:25:15;;;;;;;1.73;0.20;;;15.40;99.90;;;;;;4737455;30;20139;-86
2022/09/25 09:28:02;;;;;;;3.95;0.20;;;14.90;99.90;;;;;;4737228;30;20083;-87
2022/09/25 09:30:27;;;;;;;3.67;0.30;;;14.60;99.90;;;;;;4736950;30;20090;-88
2022/09/25 09:33:38;;;;;;;0.40;0.10;;;14.50;99.90;;;;;;4752040;30;20392;-87
2022/09/25 09:36:18;;;;;;;1.35;0.20;;;14.40;99.90;;;;;;4736977;30;20064;-86
2022/09/25 09:39:02;;;;;;;1.27;0.20;;;14.40;99.90;;;;;;4751776;30;20114;-87
2022/09/25 09:41:33;;;;;;;1.63;0.40;;;14.40;99.90;;;;;;4737291;30;20063;-85
2022/09/25 09:44:25;;;;;;;0.95;0.22;;;14.30;99.90;;;;;;4736946;30;20060;-87
2022/09/25 09:46:55;;;;;;;1.95;0.30;;;14.40;99.90;;;;;;4686224;30;20455;-84
2022/09/25 09:49:49;;;;;;;2.15;0.20;;;14.00;99.90;;;;;;4701975;30;20543;-84
2022/09/25 09:52:26;;;;;;;0.52;0.20;;;14.30;99.90;;;;;;4687962;30;20065;-85
2022/09/25 09:54:53;;;;;;;0.17;0.17;;;14.40;99.90;;;;;;4702241;30;20155;-85
2022/09/25 09:57:27;;;;;;;1.73;0.22;;;14.60;99.90;;;;;;4723323;30;20057;-85
2022/09/25 10:00:01;;;;;;;1.25;0.30;;;14.70;99.90;;;;;;4716719;30;20128;-84
2022/09/25 10:02:38;;;;;;;4.10;0.35;;;15.00;99.90;;;;;;4731527;30;20055;-85
2022/09/25 10:05:36;;;;;;;1.17;0.22;;;15.40;99.90;;;;;;4724961;30;20648;-86
2022/09/25 10:08:02;;;;;;;1.10;0.22;;;15.70;99.90;;;;;;4732930;30;20071;-84
2022/09/25 10:10:36;;;;;;;2.50;0.20;;;16.00;99.90;;;;;;4734247;30;20061;-84
2022/09/25 10:13:06;;;;;;;3.80;0.20;;;16.00;99.90;;;;;;4719929;30;20587;-84
2022/09/25 10:15:41;;;;;;;1.05;0.20;;;16.00;99.90;;;;;;4704086;30;20091;-84
2022/09/25 10:18:07;;;;;;;;;;;16.00;99.90;;;;;;4723481;30;20523;-84
2022/09/25 10:20:43;;;;;;;1.63;0.20;;;16.00;99.90;;;;;;4732661;30;19934;-85
2022/09/25 10:23:37;;;;;;;0.88;0.10;;;15.90;99.90;;;;;;4745159;30;20092;-85
2022/09/25 10:26:22;;;;;;;3.00;0.20;;;15.90;99.90;;;;;;4786991;30;20114;-85
2022/09/25 10:28:48;;;;;;;1.02;0.20;;;16.00;99.90;;;;;;4757439;30;20055;-84
2022/09/25 10:31:16;;;;;;;0.75;0.20;;;16.00;99.90;;;;;;4771091;30;20425;-87
2022/09/25 10:33:42;;;;;;;0.40;0.17;;;16.10;99.90;;;;;;4754884;30;20056;-86
2022/09/25 10:36:07;;;;;;;2.33;0.20;;;16.10;99.90;;;;;;4775005;29;20124;-85
2022/09/25 10:38:36;;;;;;;1.33;0.17;;;16.10;99.90;;;;;;4762092;30;20093;-85
2022/09/25 10:41:04;;;;;;;0.03;0.03;;;16.30;99.90;;;;;;4783968;29;20055;-86
2022/09/25 10:43:29;;;;;;;1.75;0.10;;;16.20;99.90;;;;;;4784865;30;20054;-86
2022/09/25 10:46:12;;;;;;;0.47;0.10;;;16.20;99.90;;;;;;4764040;30;20056;-86
2022/09/25 10:51:24;;;;;;;0.95;0.15;;;16.30;99.90;;;;;;4754872;30;20075;-87
2022/09/25 10:54:11;;;;;;;0.35;0.10;;;16.30;99.90;;;;;;4755740;30;20048;-86
2022/09/25 10:56:38;;;;;;;0.10;0.10;;;16.30;99.90;;;;;;4771052;30;20133;-88
2022/09/25 10:59:19;;;;;;;2.70;0.20;;;16.30;99.90;;;;;;4754976;30;20113;-86
2022/09/25 11:01:46;;;;;;;0.00;0.00;;;16.40;99.90;;;;;;4786754;30;20055;-85
2022/09/25 11:04:15;;;;;;;1.35;0.10;;;16.30;99.90;;;;;;4767787;30;20059;-88
2022/09/25 11:06:48;;;;;;;1.00;0.10;;;16.40;99.90;;;;;;4770779;30;20055;-86
2022/09/25 11:09:22;;;;;;;1.02;0.20;;;16.50;99.90;;;;;;4759571;30;20078;-86
2022/09/25 11:11:52;;;;;;;1.42;0.20;;;16.60;99.90;;;;;;4756161;30;20064;-87
2022/09/25 11:14:32;;;;;;;2.63;0.20;;;17.00;99.90;;;;;;4755568;30;20525;-85
2022/09/25 11:17:03;;;;;;;1.05;0.15;;;17.10;99.90;;;;;;4754296;30;20095;-86
2022/09/25 11:19:34;;;;;;;0.65;0.20;;;17.00;99.90;;;;;;4770632;30;20150;-86
2022/09/25 11:22:17;;;;;;;0.47;0.10;;;17.30;99.90;;;;;;4756396;30;20059;-85
2022/09/25 11:24:50;;;;;;;1.77;0.20;;;16.70;99.90;;;;;;4770247;30;20067;-86
2022/09/25 11:27:38;;;;;;;2.47;0.30;;;16.60;99.90;;;;;;4771385;30;20062;-86
2022/09/25 11:30:15;;;;;;;0.63;0.20;;;16.70;99.90;;;;;;4771015;30;20094;-86
2022/09/25 11:32:49;;;;;;;1.08;0.10;;;16.70;99.90;;;;;;4761548;30;20106;-86
2022/09/25 11:35:29;;;;;;;0.50;0.10;;;16.60;99.90;;;;;;4783828;30;20118;-86
2022/09/25 11:41:10;;;;;;;0.25;0.10;;;16.50;99.90;;;;;;4754298;30;20071;-85
2022/09/25 11:41:39;;;;;;;2.33;0.28;;;16.60;99.90;;;;;;4769462;30;20511;-86
2022/09/25 11:44:13;;;;;;;5.53;0.40;;;16.70;99.90;;;;;;4731705;30;20045;-87
2022/09/25 11:46:56;;;;;;;0.90;0.10;;;16.70;99.90;;;;;;4708746;30;20144;-85
2022/09/25 11:49:33;;;;;;;0.80;0.20;;;16.40;99.90;;;;;;4715096;30;20079;-87
2022/09/25 11:52:35;;;;;;;2.17;0.20;;;16.60;99.90;;;;;;4710423;30;20053;-87
2022/09/25 11:55:07;;;;;;;0.65;0.20;;;16.30;99.90;;;;;;4712385;30;20059;-90
2022/09/25 11:57:42;;;;;;;1.23;0.55;;;16.10;99.90;;;;;;4722796;30;20049;-86
2022/09/25 12:00:11;;;;;;;1.88;0.35;;;16.10;99.90;;;;;;4710857;30;20117;-87
2022/09/25 12:02:45;;;;;;;3.17;0.30;;;16.10;99.90;;;;;;4722147;30;20851;-86
2022/09/25 12:05:54;;;;;;;1.88;0.73;;;16.10;99.90;;;;;;4700133;30;20133;-86
2022/09/25 12:08:23;;;;;;;3.00;0.50;;;16.00;99.90;;;;;;4709539;30;20111;-85
2022/09/25 12:11:28;;;;;;;1.00;0.25;;;16.10;99.90;;;;;;4711097;30;20060;-86
2022/09/25 12:13:54;;;;;;;2.22;0.30;;;16.00;99.90;;;;;;4731119;29;20097;-87
2022/09/25 12:16:39;;;;;;;1.50;0.28;;;16.10;99.90;;;;;;4703777;30;20056;-88
2022/09/25 12:19:16;;;;;;;2.22;0.50;;;16.20;99.90;;;;;;4715412;30;20536;-87
2022/09/25 12:21:48;;;;;;;0.88;0.40;;;16.20;99.90;;;;;;4770722;30;20063;-88
2022/09/25 12:24:26;;;;;;;1.52;0.20;;;16.40;99.90;;;;;;4774316;30;20062;-87
2022/09/25 12:27:14;;;;;;;0.90;0.35;;;16.60;99.90;;;;;;4770202;30;20414;-87
2022/09/25 12:30:05;;;;;;;1.48;0.20;;;16.60;99.90;;;;;;4753460;30;20066;-86
2022/09/25 12:32:56;;;;;;;3.17;0.30;;;16.70;99.90;;;;;;4753376;30;20059;-86
2022/09/25 12:35:34;;;;;;;3.88;0.30;;;16.80;99.90;;;;;;4781044;30;20424;-87
2022/09/25 12:38:21;;;;;;;1.10;0.30;;;16.70;99.90;;;;;;4754443;30;20047;-87
2022/09/25 12:41:10;;;;;;;0.93;0.20;;;16.90;99.90;;;;;;4770278;30;20130;-88
2022/09/25 12:43:36;;;;;;;1.08;0.20;;;16.80;99.90;;;;;;4770786;30;20056;-86
2022/09/25 12:46:08;;;;;;;0.30;0.20;;;16.80;99.90;;;;;;4765620;30;20062;-87
2022/09/25 12:48:38;;;;;;;0.85;0.13;;;16.70;99.90;;;;;;4760891;30;20052;-88
2022/09/25 12:51:27;;;;;;;0.30;0.10;;;16.50;99.90;;;;;;4753548;30;20120;-86
2022/09/25 12:54:14;;;;;;;0.22;0.13;;;16.80;99.90;;;;;;4752903;30;20058;-89
2022/09/25 12:56:56;;;;;;;0.30;0.10;;;16.80;99.90;;;;;;4779218;30;20077;-90
2022/09/25 12:59:51;;;;;;;1.33;0.20;;;16.70;99.90;;;;;;4761087;30;20476;-86
2022/09/25 13:02:30;;;;;;;1.02;0.20;;;16.80;99.90;;;;;;4754928;30;20110;-96
2022/09/25 13:05:16;;;;;;;1.55;0.25;;;17.00;99.90;;;;;;4762961;30;20058;-90
2022/09/25 13:07:48;;;;;;;1.08;0.13;;;17.00;99.90;;;;;;4772670;30;20139;-90
2022/09/25 13:10:35;;;;;;;0.20;0.10;;;17.30;99.90;;;;;;4760736;30;20066;-89
2022/09/25 13:13:04;;;;;;;0.70;0.10;;;17.40;99.90;;;;;;4772679;30;20146;-91
2022/09/25 13:15:37;;;;;;;0.70;0.10;;;17.50;99.90;;;;;;4772549;30;20059;-89
2022/09/25 13:18:05;;;;;;;0.40;0.10;;;17.70;99.90;;;;;;4772609;30;20090;-91
2022/09/25 13:20:36;;;;;;;0.52;0.10;;;17.70;99.90;;;;;;4772372;30;20063;-88
2022/09/25 13:23:14;;;;;;;2.50;0.20;;;17.90;99.90;;;;;;4772403;30;20051;-90
2022/09/25 13:26:01;;;;;;;1.23;0.13;;;18.10;99.90;;;;;;4766204;30;20098;-90
2022/09/25 13:28:38;;;;;;;1.13;0.20;;;18.20;99.90;;;;;;4758264;30;20131;-89
2022/09/25 13:31:11;;;;;;;0.90;0.20;;;18.10;99.90;;;;;;4772344;30;20497;-92
2022/09/25 13:33:49;;;;;;;0.47;0.17;;;18.20;99.90;;;;;;4774075;30;20047;-88
2022/09/25 13:36:22;;;;;;;2.00;0.20;;;18.30;99.70;;;;;;4773803;30;20058;-90
2022/09/25 13:41:59;;;;;;;0.88;0.20;;;18.10;99.90;;;;;;4772430;30;20052;-88
2022/09/25 13:44:43;;;;;;;1.45;0.20;;;18.20;99.90;;;;;;4772371;30;20060;-89
2022/09/25 13:47:23;;;;;;;1.55;0.10;;;17.90;99.30;;;;;;4771810;30;20068;-89
2022/09/25 13:50:08;;;;;;;0.20;0.10;;;17.80;99.90;;;;;;4771927;30;20056;-90
2022/09/25 13:52:42;;;;;;;1.02;0.20;;;17.50;99.90;;;;;;4771589;30;20170;-89
2022/09/25 13:55:23;;;;;;;0.93;0.10;;;17.30;99.90;;;;;;4772659;30;20056;-90
2022/09/25 13:57:58;;;;;;;0.93;0.20;;;17.30;99.90;;;;;;4764457;30;20067;-90
2022/09/25 14:00:25;;;;;;;0.85;0.10;;;17.50;99.90;;;;;;4789264;30;20510;-90